sensor_id;sensor_type;location;lat;lon;timestamp;P1;durP1;ratioP1;P2;durP2;ratioP2
75781;SDS011;64400;44.762;37.698;2022-11-20T00:01:32;16.83;;;5.75;;
75781;SDS011;64400;44.762;37.698;2022-11-20T00:04:00;16.88;;;6.10;;
75781;SDS011;64400;44.762;37.698;2022-11-20T00:06:30;13.60;;;6.25;;
75781;SDS011;64400;44.762;37.698;2022-11-20T00:08:59;16.90;;;5.93;;
75781;SDS011;64400;44.762;37.698;2022-11-20T00:11:29;14.80;;;5.55;;
75781;SDS011;64400;44.762;37.698;2022-11-20T00:13:58;15.95;;;6.18;;
75781;SDS011;64400;44.762;37.698;2022-11-20T00:16:28;13.68;;;5.95;;
75781;SDS011;64400;44.762;37.698;2022-11-20T00:18:58;17.88;;;6.47;;
75781;SDS011;64400;44.762;37.698;2022-11-20T00:21:27;14.30;;;7.13;;
75781;SDS011;64400;44.762;37.698;2022-11-20T00:23:55;15.93;;;6.13;;
75781;SDS011;64400;44.762;37.698;2022-11-20T00:26:27;15.73;;;6.50;;
75781;SDS011;64400;44.762;37.698;2022-11-20T00:28:56;16.65;;;6.72;;
75781;SDS011;64400;44.762;37.698;2022-11-20T00:31:26;19.52;;;6.82;;
75781;SDS011;64400;44.762;37.698;2022-11-20T00:33:54;15.07;;;6.88;;
75781;SDS011;64400;44.762;37.698;2022-11-20T00:36:23;20.55;;;6.38;;
75781;SDS011;64400;44.762;37.698;2022-11-20T00:38:56;19.15;;;6.72;;
75781;SDS011;64400;44.762;37.698;2022-11-20T00:41:25;14.30;;;6.60;;
75781;SDS011;64400;44.762;37.698;2022-11-20T00:43:55;18.52;;;6.45;;
75781;SDS011;64400;44.762;37.698;2022-11-20T00:46:24;14.55;;;5.97;;
75781;SDS011;64400;44.762;37.698;2022-11-20T00:48:54;19.15;;;6.20;;
75781;SDS011;64400;44.762;37.698;2022-11-20T00:51:23;12.68;;;5.20;;
75781;SDS011;64400;44.762;37.698;2022-11-20T00:53:54;14.63;;;5.85;;
75781;SDS011;64400;44.762;37.698;2022-11-20T00:56:23;18.65;;;6.20;;
75781;SDS011;64400;44.762;37.698;2022-11-20T00:58:50;17.13;;;6.93;;
75781;SDS011;64400;44.762;37.698;2022-11-20T01:01:19;13.13;;;6.68;;
75781;SDS011;64400;44.762;37.698;2022-11-20T01:03:52;24.40;;;8.05;;
75781;SDS011;64400;44.762;37.698;2022-11-20T01:06:22;14.85;;;6.95;;
75781;SDS011;64400;44.762;37.698;2022-11-20T01:08:56;15.70;;;7.03;;
75781;SDS011;64400;44.762;37.698;2022-11-20T01:11:26;24.98;;;7.20;;
75781;SDS011;64400;44.762;37.698;2022-11-20T01:13:59;19.15;;;6.85;;
75781;SDS011;64400;44.762;37.698;2022-11-20T01:16:30;19.90;;;7.00;;
75781;SDS011;64400;44.762;37.698;2022-11-20T01:19:03;19.55;;;7.88;;
75781;SDS011;64400;44.762;37.698;2022-11-20T01:21:34;22.67;;;7.35;;
75781;SDS011;64400;44.762;37.698;2022-11-20T01:24:05;17.77;;;7.15;;
75781;SDS011;64400;44.762;37.698;2022-11-20T01:26:35;17.15;;;7.28;;
75781;SDS011;64400;44.762;37.698;2022-11-20T01:29:04;17.35;;;6.90;;
75781;SDS011;64400;44.762;37.698;2022-11-20T01:31:34;16.27;;;6.20;;
75781;SDS011;64400;44.762;37.698;2022-11-20T01:34:04;17.05;;;6.32;;
75781;SDS011;64400;44.762;37.698;2022-11-20T01:36:34;17.77;;;7.13;;
75781;SDS011;64400;44.762;37.698;2022-11-20T01:39:04;18.05;;;6.30;;
75781;SDS011;64400;44.762;37.698;2022-11-20T01:41:34;14.00;;;6.43;;
75781;SDS011;64400;44.762;37.698;2022-11-20T01:44:22;13.10;;;5.82;;
75781;SDS011;64400;44.762;37.698;2022-11-20T01:47:10;21.33;;;6.43;;
75781;SDS011;64400;44.762;37.698;2022-11-20T01:50:03;16.17;;;5.97;;
75781;SDS011;64400;44.762;37.698;2022-11-20T01:52:47;17.33;;;6.45;;
75781;SDS011;64400;44.762;37.698;2022-11-20T01:55:29;14.57;;;6.00;;
75781;SDS011;64400;44.762;37.698;2022-11-20T01:58:00;15.30;;;5.65;;
75781;SDS011;64400;44.762;37.698;2022-11-20T02:00:29;16.60;;;6.40;;
75781;SDS011;64400;44.762;37.698;2022-11-20T02:02:58;14.82;;;6.15;;
75781;SDS011;64400;44.762;37.698;2022-11-20T02:08:16;15.80;;;5.30;;
75781;SDS011;64400;44.762;37.698;2022-11-20T02:10:45;13.10;;;5.60;;
75781;SDS011;64400;44.762;37.698;2022-11-20T02:13:13;18.00;;;6.03;;
75781;SDS011;64400;44.762;37.698;2022-11-20T02:15:59;14.27;;;5.95;;
75781;SDS011;64400;44.762;37.698;2022-11-20T02:18:27;15.15;;;5.82;;
75781;SDS011;64400;44.762;37.698;2022-11-20T02:20:59;14.52;;;5.43;;
75781;SDS011;64400;44.762;37.698;2022-11-20T02:23:38;14.95;;;6.35;;
75781;SDS011;64400;44.762;37.698;2022-11-20T02:26:11;20.83;;;6.20;;
75781;SDS011;64400;44.762;37.698;2022-11-20T02:28:41;15.75;;;6.38;;
75781;SDS011;64400;44.762;37.698;2022-11-20T02:31:09;15.35;;;5.63;;
75781;SDS011;64400;44.762;37.698;2022-11-20T02:33:37;18.13;;;5.97;;
75781;SDS011;64400;44.762;37.698;2022-11-20T02:36:07;16.55;;;6.38;;
75781;SDS011;64400;44.762;37.698;2022-11-20T02:38:38;17.75;;;5.78;;
75781;SDS011;64400;44.762;37.698;2022-11-20T02:41:06;10.27;;;5.47;;
75781;SDS011;64400;44.762;37.698;2022-11-20T02:43:33;16.95;;;5.63;;
75781;SDS011;64400;44.762;37.698;2022-11-20T02:46:01;23.02;;;5.85;;
75781;SDS011;64400;44.762;37.698;2022-11-20T02:48:29;15.30;;;5.72;;
75781;SDS011;64400;44.762;37.698;2022-11-20T02:51:00;12.38;;;5.70;;
75781;SDS011;64400;44.762;37.698;2022-11-20T02:53:28;14.50;;;6.20;;
75781;SDS011;64400;44.762;37.698;2022-11-20T02:55:55;13.23;;;5.60;;
75781;SDS011;64400;44.762;37.698;2022-11-20T02:58:23;20.48;;;7.22;;
75781;SDS011;64400;44.762;37.698;2022-11-20T03:00:51;16.35;;;6.40;;
75781;SDS011;64400;44.762;37.698;2022-11-20T03:03:19;18.58;;;6.00;;
75781;SDS011;64400;44.762;37.698;2022-11-20T03:05:47;14.68;;;6.45;;
75781;SDS011;64400;44.762;37.698;2022-11-20T03:08:15;13.38;;;5.47;;
75781;SDS011;64400;44.762;37.698;2022-11-20T03:10:42;18.95;;;5.10;;
75781;SDS011;64400;44.762;37.698;2022-11-20T03:13:10;15.05;;;6.15;;
75781;SDS011;64400;44.762;37.698;2022-11-20T03:15:38;14.63;;;6.30;;
75781;SDS011;64400;44.762;37.698;2022-11-20T03:18:06;14.13;;;6.32;;
75781;SDS011;64400;44.762;37.698;2022-11-20T03:20:34;13.88;;;5.85;;
75781;SDS011;64400;44.762;37.698;2022-11-20T03:23:01;14.95;;;6.20;;
75781;SDS011;64400;44.762;37.698;2022-11-20T03:25:29;9.57;;;5.80;;
75781;SDS011;64400;44.762;37.698;2022-11-20T03:27:57;14.82;;;6.03;;
75781;SDS011;64400;44.762;37.698;2022-11-20T03:30:25;14.23;;;6.22;;
75781;SDS011;64400;44.762;37.698;2022-11-20T03:32:56;13.82;;;5.80;;
75781;SDS011;64400;44.762;37.698;2022-11-20T03:35:24;15.98;;;7.00;;
75781;SDS011;64400;44.762;37.698;2022-11-20T03:37:52;15.57;;;6.25;;
75781;SDS011;64400;44.762;37.698;2022-11-20T03:40:20;14.15;;;5.78;;
75781;SDS011;64400;44.762;37.698;2022-11-20T03:42:48;15.70;;;6.38;;
75781;SDS011;64400;44.762;37.698;2022-11-20T03:45:16;19.02;;;6.60;;
75781;SDS011;64400;44.762;37.698;2022-11-20T03:47:45;15.73;;;6.70;;
75781;SDS011;64400;44.762;37.698;2022-11-20T03:50:13;16.80;;;6.25;;
75781;SDS011;64400;44.762;37.698;2022-11-20T03:52:41;12.82;;;6.45;;
75781;SDS011;64400;44.762;37.698;2022-11-20T03:55:09;14.20;;;5.45;;
75781;SDS011;64400;44.762;37.698;2022-11-20T03:57:38;18.58;;;6.70;;
75781;SDS011;64400;44.762;37.698;2022-11-20T04:00:06;17.58;;;6.78;;
75781;SDS011;64400;44.762;37.698;2022-11-20T04:02:34;11.82;;;5.53;;
75781;SDS011;64400;44.762;37.698;2022-11-20T04:05:02;12.52;;;6.05;;
75781;SDS011;64400;44.762;37.698;2022-11-20T04:07:30;15.20;;;6.60;;
75781;SDS011;64400;44.762;37.698;2022-11-20T04:09:57;12.70;;;5.90;;
75781;SDS011;64400;44.762;37.698;2022-11-20T04:12:25;12.65;;;5.93;;
75781;SDS011;64400;44.762;37.698;2022-11-20T04:14:53;14.82;;;7.13;;
75781;SDS011;64400;44.762;37.698;2022-11-20T04:17:21;17.05;;;7.35;;
75781;SDS011;64400;44.762;37.698;2022-11-20T04:19:48;15.65;;;6.18;;
75781;SDS011;64400;44.762;37.698;2022-11-20T04:22:16;15.30;;;6.78;;
75781;SDS011;64400;44.762;37.698;2022-11-20T04:24:44;15.70;;;7.13;;
75781;SDS011;64400;44.762;37.698;2022-11-20T04:27:12;16.50;;;7.32;;
75781;SDS011;64400;44.762;37.698;2022-11-20T04:29:39;16.67;;;7.75;;
75781;SDS011;64400;44.762;37.698;2022-11-20T04:32:07;14.77;;;7.10;;
75781;SDS011;64400;44.762;37.698;2022-11-20T04:34:35;16.85;;;6.90;;
75781;SDS011;64400;44.762;37.698;2022-11-20T04:37:03;13.10;;;7.00;;
75781;SDS011;64400;44.762;37.698;2022-11-20T04:39:31;16.00;;;7.70;;
75781;SDS011;64400;44.762;37.698;2022-11-20T04:41:58;15.30;;;6.95;;
75781;SDS011;64400;44.762;37.698;2022-11-20T04:44:44;19.48;;;8.35;;
75781;SDS011;64400;44.762;37.698;2022-11-20T04:47:12;14.50;;;7.47;;
75781;SDS011;64400;44.762;37.698;2022-11-20T04:49:40;18.17;;;8.13;;
75781;SDS011;64400;44.762;37.698;2022-11-20T04:52:08;15.35;;;7.75;;
75781;SDS011;64400;44.762;37.698;2022-11-20T04:54:35;18.98;;;8.10;;
75781;SDS011;64400;44.762;37.698;2022-11-20T04:57:03;15.00;;;7.82;;
75781;SDS011;64400;44.762;37.698;2022-11-20T04:59:37;17.30;;;8.15;;
75781;SDS011;64400;44.762;37.698;2022-11-20T05:02:05;20.02;;;8.60;;
75781;SDS011;64400;44.762;37.698;2022-11-20T05:04:33;16.20;;;7.68;;
75781;SDS011;64400;44.762;37.698;2022-11-20T05:07:00;17.20;;;7.68;;
75781;SDS011;64400;44.762;37.698;2022-11-20T05:09:29;18.70;;;7.93;;
75781;SDS011;64400;44.762;37.698;2022-11-20T05:11:57;17.75;;;7.35;;
75781;SDS011;64400;44.762;37.698;2022-11-20T05:14:25;14.55;;;6.68;;
75781;SDS011;64400;44.762;37.698;2022-11-20T05:16:52;14.80;;;7.32;;
75781;SDS011;64400;44.762;37.698;2022-11-20T05:19:20;13.40;;;7.50;;
75781;SDS011;64400;44.762;37.698;2022-11-20T05:21:48;12.25;;;6.40;;
75781;SDS011;64400;44.762;37.698;2022-11-20T05:24:16;12.50;;;6.18;;
75781;SDS011;64400;44.762;37.698;2022-11-20T05:26:44;12.30;;;6.18;;
75781;SDS011;64400;44.762;37.698;2022-11-20T05:29:11;12.50;;;5.80;;
75781;SDS011;64400;44.762;37.698;2022-11-20T05:31:40;11.90;;;6.18;;
75781;SDS011;64400;44.762;37.698;2022-11-20T05:34:08;10.10;;;5.78;;
75781;SDS011;64400;44.762;37.698;2022-11-20T05:36:35;12.63;;;6.25;;
75781;SDS011;64400;44.762;37.698;2022-11-20T05:39:03;13.27;;;6.78;;
75781;SDS011;64400;44.762;37.698;2022-11-20T05:41:32;15.85;;;6.50;;
75781;SDS011;64400;44.762;37.698;2022-11-20T05:44:00;12.82;;;6.68;;
75781;SDS011;64400;44.762;37.698;2022-11-20T05:46:28;14.30;;;7.03;;
75781;SDS011;64400;44.762;37.698;2022-11-20T05:48:56;17.58;;;7.45;;
75781;SDS011;64400;44.762;37.698;2022-11-20T05:51:25;17.35;;;7.30;;
75781;SDS011;64400;44.762;37.698;2022-11-20T05:53:53;14.55;;;6.70;;
75781;SDS011;64400;44.762;37.698;2022-11-20T05:56:23;13.27;;;6.90;;
75781;SDS011;64400;44.762;37.698;2022-11-20T05:58:50;14.70;;;6.57;;
75781;SDS011;64400;44.762;37.698;2022-11-20T06:01:22;13.82;;;7.00;;
75781;SDS011;64400;44.762;37.698;2022-11-20T06:03:52;19.83;;;6.85;;
75781;SDS011;64400;44.762;37.698;2022-11-20T06:06:20;14.38;;;6.80;;
75781;SDS011;64400;44.762;37.698;2022-11-20T06:08:49;13.23;;;6.22;;
75781;SDS011;64400;44.762;37.698;2022-11-20T06:11:17;9.73;;;5.82;;
75781;SDS011;64400;44.762;37.698;2022-11-20T06:13:45;14.80;;;6.03;;
75781;SDS011;64400;44.762;37.698;2022-11-20T06:16:14;13.00;;;6.10;;
75781;SDS011;64400;44.762;37.698;2022-11-20T06:18:43;10.55;;;5.85;;
75781;SDS011;64400;44.762;37.698;2022-11-20T06:21:12;13.35;;;6.40;;
75781;SDS011;64400;44.762;37.698;2022-11-20T06:23:42;17.05;;;6.60;;
75781;SDS011;64400;44.762;37.698;2022-11-20T06:26:13;12.60;;;6.15;;
75781;SDS011;64400;44.762;37.698;2022-11-20T06:28:43;17.58;;;6.53;;
75781;SDS011;64400;44.762;37.698;2022-11-20T06:31:12;13.63;;;6.65;;
75781;SDS011;64400;44.762;37.698;2022-11-20T06:33:41;16.67;;;6.80;;
75781;SDS011;64400;44.762;37.698;2022-11-20T06:36:11;14.95;;;7.15;;
75781;SDS011;64400;44.762;37.698;2022-11-20T06:38:40;14.27;;;6.45;;
75781;SDS011;64400;44.762;37.698;2022-11-20T06:41:10;12.45;;;6.85;;
75781;SDS011;64400;44.762;37.698;2022-11-20T06:43:39;13.52;;;5.97;;
75781;SDS011;64400;44.762;37.698;2022-11-20T06:46:09;13.48;;;6.85;;
75781;SDS011;64400;44.762;37.698;2022-11-20T06:48:37;12.50;;;6.18;;
75781;SDS011;64400;44.762;37.698;2022-11-20T06:51:06;14.63;;;7.78;;
75781;SDS011;64400;44.762;37.698;2022-11-20T06:53:34;16.88;;;7.88;;
75781;SDS011;64400;44.762;37.698;2022-11-20T06:56:03;16.33;;;8.15;;
75781;SDS011;64400;44.762;37.698;2022-11-20T06:58:32;11.93;;;6.88;;
75781;SDS011;64400;44.762;37.698;2022-11-20T07:01:05;18.38;;;7.50;;
75781;SDS011;64400;44.762;37.698;2022-11-20T07:03:36;15.75;;;6.65;;
75781;SDS011;64400;44.762;37.698;2022-11-20T07:06:04;17.85;;;6.65;;
75781;SDS011;64400;44.762;37.698;2022-11-20T07:08:33;14.10;;;5.85;;
75781;SDS011;64400;44.762;37.698;2022-11-20T07:11:03;15.88;;;7.05;;
75781;SDS011;64400;44.762;37.698;2022-11-20T07:13:32;15.98;;;6.45;;
75781;SDS011;64400;44.762;37.698;2022-11-20T07:16:01;12.63;;;5.05;;
75781;SDS011;64400;44.762;37.698;2022-11-20T07:18:31;15.32;;;7.05;;
75781;SDS011;64400;44.762;37.698;2022-11-20T07:21:02;13.88;;;6.28;;
75781;SDS011;64400;44.762;37.698;2022-11-20T07:23:32;14.73;;;6.85;;
75781;SDS011;64400;44.762;37.698;2022-11-20T07:26:03;14.18;;;6.05;;
75781;SDS011;64400;44.762;37.698;2022-11-20T07:28:33;13.98;;;6.45;;
75781;SDS011;64400;44.762;37.698;2022-11-20T07:31:01;15.20;;;6.55;;
75781;SDS011;64400;44.762;37.698;2022-11-20T07:33:30;15.85;;;7.80;;
75781;SDS011;64400;44.762;37.698;2022-11-20T07:35:58;10.50;;;5.57;;
75781;SDS011;64400;44.762;37.698;2022-11-20T07:38:27;9.68;;;4.93;;
75781;SDS011;64400;44.762;37.698;2022-11-20T07:40:58;10.40;;;4.28;;
75781;SDS011;64400;44.762;37.698;2022-11-20T07:43:29;12.98;;;5.55;;
75781;SDS011;64400;44.762;37.698;2022-11-20T07:45:57;12.00;;;4.95;;
75781;SDS011;64400;44.762;37.698;2022-11-20T07:48:25;9.30;;;4.57;;
75781;SDS011;64400;44.762;37.698;2022-11-20T07:50:56;11.80;;;5.15;;
75781;SDS011;64400;44.762;37.698;2022-11-20T07:53:24;8.45;;;5.05;;
75781;SDS011;64400;44.762;37.698;2022-11-20T07:55:52;7.63;;;4.60;;
75781;SDS011;64400;44.762;37.698;2022-11-20T07:58:20;10.18;;;4.90;;
75781;SDS011;64400;44.762;37.698;2022-11-20T08:00:48;8.00;;;4.85;;
75781;SDS011;64400;44.762;37.698;2022-11-20T08:03:16;10.88;;;4.63;;
75781;SDS011;64400;44.762;37.698;2022-11-20T08:05:51;11.27;;;4.82;;
75781;SDS011;64400;44.762;37.698;2022-11-20T08:08:19;10.82;;;5.03;;
75781;SDS011;64400;44.762;37.698;2022-11-20T08:10:48;11.27;;;5.28;;
75781;SDS011;64400;44.762;37.698;2022-11-20T08:13:16;10.50;;;4.30;;
75781;SDS011;64400;44.762;37.698;2022-11-20T08:16:02;12.48;;;4.78;;
75781;SDS011;64400;44.762;37.698;2022-11-20T08:18:30;10.70;;;4.78;;
75781;SDS011;64400;44.762;37.698;2022-11-20T08:21:02;8.90;;;4.20;;
75781;SDS011;64400;44.762;37.698;2022-11-20T08:23:33;9.52;;;4.70;;
75781;SDS011;64400;44.762;37.698;2022-11-20T08:26:01;11.05;;;4.75;;
75781;SDS011;64400;44.762;37.698;2022-11-20T08:28:28;5.78;;;2.80;;
75781;SDS011;64400;44.762;37.698;2022-11-20T08:31:00;8.52;;;3.45;;
75781;SDS011;64400;44.762;37.698;2022-11-20T08:33:28;8.05;;;4.20;;
75781;SDS011;64400;44.762;37.698;2022-11-20T08:36:00;8.38;;;3.72;;
75781;SDS011;64400;44.762;37.698;2022-11-20T08:38:32;6.97;;;2.95;;
75781;SDS011;64400;44.762;37.698;2022-11-20T08:41:00;7.30;;;3.80;;
75781;SDS011;64400;44.762;37.698;2022-11-20T08:43:49;6.88;;;3.53;;
75781;SDS011;64400;44.762;37.698;2022-11-20T08:46:18;7.72;;;4.32;;
75781;SDS011;64400;44.762;37.698;2022-11-20T08:48:46;8.05;;;3.83;;
75781;SDS011;64400;44.762;37.698;2022-11-20T08:51:14;7.05;;;3.13;;
75781;SDS011;64400;44.762;37.698;2022-11-20T08:53:43;8.38;;;3.40;;
75781;SDS011;64400;44.762;37.698;2022-11-20T08:56:11;8.38;;;4.07;;
75781;SDS011;64400;44.762;37.698;2022-11-20T08:58:39;7.05;;;3.75;;
75781;SDS011;64400;44.762;37.698;2022-11-20T09:01:27;9.32;;;4.07;;
75781;SDS011;64400;44.762;37.698;2022-11-20T09:03:56;9.82;;;4.07;;
75781;SDS011;64400;44.762;37.698;2022-11-20T09:06:24;8.15;;;3.10;;
75781;SDS011;64400;44.762;37.698;2022-11-20T09:08:55;7.65;;;3.47;;
75781;SDS011;64400;44.762;37.698;2022-11-20T09:11:31;9.95;;;4.03;;
75781;SDS011;64400;44.762;37.698;2022-11-20T09:13:59;9.02;;;3.30;;
75781;SDS011;64400;44.762;37.698;2022-11-20T09:16:27;7.53;;;3.70;;
75781;SDS011;64400;44.762;37.698;2022-11-20T09:18:55;7.15;;;3.13;;
75781;SDS011;64400;44.762;37.698;2022-11-20T09:21:43;4.72;;;2.42;;
75781;SDS011;64400;44.762;37.698;2022-11-20T09:24:10;4.57;;;2.17;;
75781;SDS011;64400;44.762;37.698;2022-11-20T09:26:38;7.35;;;3.42;;
75781;SDS011;64400;44.762;37.698;2022-11-20T09:29:06;6.43;;;3.28;;
75781;SDS011;64400;44.762;37.698;2022-11-20T09:31:34;7.00;;;3.38;;
75781;SDS011;64400;44.762;37.698;2022-11-20T09:34:04;11.00;;;3.78;;
75781;SDS011;64400;44.762;37.698;2022-11-20T09:36:32;7.40;;;3.95;;
75781;SDS011;64400;44.762;37.698;2022-11-20T09:38:59;10.40;;;3.90;;
75781;SDS011;64400;44.762;37.698;2022-11-20T09:46:58;8.95;;;4.00;;
75781;SDS011;64400;44.762;37.698;2022-11-20T09:49:54;10.02;;;3.47;;
75781;SDS011;64400;44.762;37.698;2022-11-20T09:52:52;7.95;;;3.65;;
75781;SDS011;64400;44.762;37.698;2022-11-20T09:55:27;5.80;;;2.60;;
75781;SDS011;64400;44.762;37.698;2022-11-20T09:57:58;9.85;;;3.80;;
75781;SDS011;64400;44.762;37.698;2022-11-20T10:00:28;7.00;;;2.95;;
75781;SDS011;64400;44.762;37.698;2022-11-20T10:03:03;6.13;;;2.70;;
75781;SDS011;64400;44.762;37.698;2022-11-20T10:11:04;7.85;;;2.85;;
75781;SDS011;64400;44.762;37.698;2022-11-20T10:13:35;8.32;;;3.00;;
75781;SDS011;64400;44.762;37.698;2022-11-20T10:18:54;11.68;;;4.10;;
75781;SDS011;64400;44.762;37.698;2022-11-20T10:24:39;8.15;;;3.38;;
75781;SDS011;64400;44.762;37.698;2022-11-20T10:29:43;10.70;;;4.22;;
75781;SDS011;64400;44.762;37.698;2022-11-20T10:32:16;9.32;;;4.20;;
75781;SDS011;64400;44.762;37.698;2022-11-20T10:34:51;9.35;;;4.18;;
75781;SDS011;64400;44.762;37.698;2022-11-20T10:37:26;9.02;;;4.03;;
75781;SDS011;64400;44.762;37.698;2022-11-20T10:40:01;7.03;;;2.90;;
75781;SDS011;64400;44.762;37.698;2022-11-20T10:45:31;10.55;;;4.22;;
75781;SDS011;64400;44.762;37.698;2022-11-20T10:50:27;9.45;;;3.88;;
75781;SDS011;64400;44.762;37.698;2022-11-20T10:53:08;5.65;;;2.53;;
75781;SDS011;64400;44.762;37.698;2022-11-20T10:58:19;9.18;;;3.95;;
75781;SDS011;64400;44.762;37.698;2022-11-20T11:01:04;8.38;;;3.78;;
75781;SDS011;64400;44.762;37.698;2022-11-20T11:03:40;9.60;;;4.22;;
75781;SDS011;64400;44.762;37.698;2022-11-20T11:09:03;8.88;;;4.07;;
75781;SDS011;64400;44.762;37.698;2022-11-20T11:11:38;8.63;;;4.22;;
75781;SDS011;64400;44.762;37.698;2022-11-20T11:16:34;8.82;;;3.72;;
75781;SDS011;64400;44.762;37.698;2022-11-20T11:19:12;8.90;;;3.72;;
75781;SDS011;64400;44.762;37.698;2022-11-20T11:21:47;9.48;;;4.32;;
75781;SDS011;64400;44.762;37.698;2022-11-20T11:24:28;10.35;;;4.15;;
75781;SDS011;64400;44.762;37.698;2022-11-20T11:27:14;8.32;;;3.92;;
75781;SDS011;64400;44.762;37.698;2022-11-20T11:29:45;11.35;;;4.55;;
75781;SDS011;64400;44.762;37.698;2022-11-20T11:32:18;8.43;;;4.25;;
75781;SDS011;64400;44.762;37.698;2022-11-20T11:35:04;7.88;;;3.58;;
75781;SDS011;64400;44.762;37.698;2022-11-20T11:37:38;9.10;;;4.20;;
75781;SDS011;64400;44.762;37.698;2022-11-20T11:40:08;10.50;;;4.18;;
75781;SDS011;64400;44.762;37.698;2022-11-20T11:42:56;8.57;;;4.22;;
75781;SDS011;64400;44.762;37.698;2022-11-20T11:45:26;9.57;;;4.15;;
75781;SDS011;64400;44.762;37.698;2022-11-20T11:47:55;6.95;;;4.18;;
75781;SDS011;64400;44.762;37.698;2022-11-20T11:50:25;9.85;;;3.63;;
75781;SDS011;64400;44.762;37.698;2022-11-20T11:53:05;10.35;;;4.00;;
75781;SDS011;64400;44.762;37.698;2022-11-20T12:12:58;9.13;;;3.63;;
75781;SDS011;64400;44.762;37.698;2022-11-20T12:15:33;8.70;;;3.72;;
75781;SDS011;64400;44.762;37.698;2022-11-20T12:18:01;11.35;;;4.50;;
75781;SDS011;64400;44.762;37.698;2022-11-20T12:20:34;14.00;;;4.78;;
75781;SDS011;64400;44.762;37.698;2022-11-20T12:25:53;9.68;;;4.47;;
75781;SDS011;64400;44.762;37.698;2022-11-20T12:50:34;8.90;;;4.15;;
75781;SDS011;64400;44.762;37.698;2022-11-20T12:53:44;9.13;;;3.88;;
75781;SDS011;64400;44.762;37.698;2022-11-20T12:59:21;8.63;;;3.90;;
75781;SDS011;64400;44.762;37.698;2022-11-20T13:01:56;7.55;;;3.40;;
75781;SDS011;64400;44.762;37.698;2022-11-20T13:07:22;13.43;;;4.13;;
75781;SDS011;64400;44.762;37.698;2022-11-20T13:09:53;9.00;;;3.92;;
75781;SDS011;64400;44.762;37.698;2022-11-20T13:15:06;11.32;;;4.50;;
75781;SDS011;64400;44.762;37.698;2022-11-20T13:18:00;6.60;;;3.42;;
75781;SDS011;64400;44.762;37.698;2022-11-20T13:20:30;9.77;;;4.40;;
75781;SDS011;64400;44.762;37.698;2022-11-20T13:23:00;11.65;;;4.70;;
75781;SDS011;64400;44.762;37.698;2022-11-20T13:25:32;12.90;;;5.50;;
75781;SDS011;64400;44.762;37.698;2022-11-20T13:28:05;11.50;;;5.18;;
75781;SDS011;64400;44.762;37.698;2022-11-20T13:30:56;12.13;;;5.15;;
75781;SDS011;64400;44.762;37.698;2022-11-20T13:33:30;19.67;;;6.90;;
75781;SDS011;64400;44.762;37.698;2022-11-20T13:36:00;10.85;;;4.78;;
75781;SDS011;64400;44.762;37.698;2022-11-20T13:38:43;9.77;;;4.90;;
75781;SDS011;64400;44.762;37.698;2022-11-20T13:44:20;9.65;;;4.70;;
75781;SDS011;64400;44.762;37.698;2022-11-20T13:46:54;10.60;;;5.25;;
75781;SDS011;64400;44.762;37.698;2022-11-20T13:58:04;9.82;;;5.05;;
75781;SDS011;64400;44.762;37.698;2022-11-20T14:03:36;16.17;;;5.18;;
75781;SDS011;64400;44.762;37.698;2022-11-20T14:08:58;13.07;;;6.15;;
75781;SDS011;64400;44.762;37.698;2022-11-20T14:11:28;17.23;;;6.25;;
75781;SDS011;64400;44.762;37.698;2022-11-20T14:13:58;14.07;;;5.95;;
75781;SDS011;64400;44.762;37.698;2022-11-20T14:16:34;14.65;;;6.50;;
75781;SDS011;64400;44.762;37.698;2022-11-20T14:21:54;14.38;;;5.55;;
75781;SDS011;64400;44.762;37.698;2022-11-20T14:24:34;14.43;;;5.97;;
75781;SDS011;64400;44.762;37.698;2022-11-20T14:27:02;14.35;;;5.30;;
75781;SDS011;64400;44.762;37.698;2022-11-20T14:29:34;12.73;;;5.95;;
75781;SDS011;64400;44.762;37.698;2022-11-20T14:32:04;14.18;;;6.22;;
75781;SDS011;64400;44.762;37.698;2022-11-20T14:34:35;14.88;;;5.57;;
75781;SDS011;64400;44.762;37.698;2022-11-20T14:37:11;11.38;;;4.82;;
75781;SDS011;64400;44.762;37.698;2022-11-20T14:39:47;14.73;;;5.63;;
75781;SDS011;64400;44.762;37.698;2022-11-20T14:42:24;10.43;;;4.97;;
75781;SDS011;64400;44.762;37.698;2022-11-20T14:44:59;16.88;;;5.72;;
75781;SDS011;64400;44.762;37.698;2022-11-20T14:47:30;12.65;;;5.93;;
75781;SDS011;64400;44.762;37.698;2022-11-20T14:50:00;16.67;;;5.75;;
75781;SDS011;64400;44.762;37.698;2022-11-20T14:52:35;15.18;;;5.63;;
75781;SDS011;64400;44.762;37.698;2022-11-20T14:55:13;14.90;;;5.65;;
75781;SDS011;64400;44.762;37.698;2022-11-20T14:57:55;15.25;;;6.03;;
75781;SDS011;64400;44.762;37.698;2022-11-20T15:00:28;14.27;;;5.70;;
75781;SDS011;64400;44.762;37.698;2022-11-20T15:02:57;14.95;;;6.75;;
75781;SDS011;64400;44.762;37.698;2022-11-20T15:05:44;22.48;;;7.30;;
75781;SDS011;64400;44.762;37.698;2022-11-20T15:08:14;16.42;;;7.20;;
75781;SDS011;64400;44.762;37.698;2022-11-20T15:10:49;17.95;;;7.60;;
75781;SDS011;64400;44.762;37.698;2022-11-20T15:13:24;19.10;;;7.30;;
75781;SDS011;64400;44.762;37.698;2022-11-20T15:16:08;15.57;;;6.35;;
75781;SDS011;64400;44.762;37.698;2022-11-20T15:18:50;17.43;;;7.70;;
75781;SDS011;64400;44.762;37.698;2022-11-20T15:21:19;17.05;;;6.40;;
75781;SDS011;64400;44.762;37.698;2022-11-20T15:23:50;16.75;;;7.72;;
75781;SDS011;64400;44.762;37.698;2022-11-20T15:26:25;15.50;;;7.03;;
75781;SDS011;64400;44.762;37.698;2022-11-20T15:28:54;18.23;;;6.80;;
75781;SDS011;64400;44.762;37.698;2022-11-20T15:31:22;16.27;;;6.95;;
75781;SDS011;64400;44.762;37.698;2022-11-20T15:33:51;13.65;;;5.95;;
75781;SDS011;64400;44.762;37.698;2022-11-20T15:36:19;14.32;;;5.93;;
75781;SDS011;64400;44.762;37.698;2022-11-20T15:38:47;15.57;;;6.28;;
75781;SDS011;64400;44.762;37.698;2022-11-20T15:41:15;14.23;;;5.95;;
75781;SDS011;64400;44.762;37.698;2022-11-20T15:43:43;11.38;;;5.32;;
75781;SDS011;64400;44.762;37.698;2022-11-20T15:46:15;14.52;;;6.05;;
75781;SDS011;64400;44.762;37.698;2022-11-20T15:48:54;14.57;;;6.40;;
75781;SDS011;64400;44.762;37.698;2022-11-20T15:53:56;12.93;;;5.32;;
75781;SDS011;64400;44.762;37.698;2022-11-20T15:56:24;13.52;;;5.40;;
75781;SDS011;64400;44.762;37.698;2022-11-20T15:58:52;12.98;;;5.45;;
75781;SDS011;64400;44.762;37.698;2022-11-20T16:01:21;17.80;;;5.85;;
75781;SDS011;64400;44.762;37.698;2022-11-20T16:03:50;13.68;;;6.97;;
75781;SDS011;64400;44.762;37.698;2022-11-20T16:06:17;17.70;;;5.45;;
75781;SDS011;64400;44.762;37.698;2022-11-20T16:08:45;14.18;;;6.10;;
75781;SDS011;64400;44.762;37.698;2022-11-20T16:11:15;13.30;;;5.60;;
75781;SDS011;64400;44.762;37.698;2022-11-20T16:13:44;12.77;;;5.15;;
75781;SDS011;64400;44.762;37.698;2022-11-20T16:16:32;15.63;;;5.90;;
75781;SDS011;64400;44.762;37.698;2022-11-20T16:19:01;13.02;;;4.45;;
75781;SDS011;64400;44.762;37.698;2022-11-20T16:21:29;12.70;;;5.15;;
75781;SDS011;64400;44.762;37.698;2022-11-20T16:23:59;9.85;;;5.28;;
75781;SDS011;64400;44.762;37.698;2022-11-20T16:26:28;13.18;;;6.00;;
75781;SDS011;64400;44.762;37.698;2022-11-20T16:28:58;13.82;;;6.72;;
75781;SDS011;64400;44.762;37.698;2022-11-20T16:31:27;14.45;;;5.20;;
75781;SDS011;64400;44.762;37.698;2022-11-20T16:33:56;11.98;;;5.63;;
75781;SDS011;64400;44.762;37.698;2022-11-20T16:36:26;15.77;;;6.20;;